createdAt,value
2022-09-03T00:00:10.673Z,4.0
2022-09-03T00:01:12.451Z,4.0
2022-09-03T00:02:13.472Z,4.0
2022-09-03T00:03:07.357Z,4.0
2022-09-03T00:04:08.145Z,4.0
2022-09-03T00:05:10.228Z,4.0
2022-09-03T00:06:14.782Z,4.0
2022-09-03T00:07:06.858Z,4.0
2022-09-03T00:08:07.602Z,4.0
2022-09-03T00:09:08.143Z,3.6
2022-09-03T00:10:04.596Z,3.6
2022-09-03T00:11:20.124Z,3.6
2022-09-03T00:12:09.994Z,3.6
2022-09-03T00:13:04.344Z,3.6
2022-09-03T00:14:05.853Z,3.8
2022-09-03T00:15:05.447Z,3.8
2022-09-03T00:16:04.414Z,3.8
2022-09-03T00:17:05.961Z,3.8
2022-09-03T00:18:14.516Z,3.8
2022-09-03T00:19:02.840Z,3.8
2022-09-03T00:20:17.562Z,3.9
2022-09-03T00:21:03.726Z,3.9
2022-09-03T00:22:14.065Z,3.9
2022-09-03T00:23:04.620Z,3.9
2022-09-03T00:24:03.459Z,3.9
2022-09-03T00:25:03.876Z,3.6
2022-09-03T00:26:10.187Z,3.6
2022-09-03T00:27:05.174Z,3.6
2022-09-03T00:28:05.012Z,3.6
2022-09-03T00:29:08.320Z,3.9
2022-09-03T00:30:05.046Z,3.9
2022-09-03T00:31:09.562Z,3.9
2022-09-03T00:32:06.691Z,3.9
2022-09-03T00:33:04.168Z,3.9
2022-09-03T00:34:06.476Z,3.8
2022-09-03T00:35:03.743Z,3.8
2022-09-03T00:36:01.303Z,3.8
2022-09-03T00:37:00.312Z,3.8
2022-09-03T00:38:00.649Z,3.8
2022-09-03T00:39:00.254Z,3.8
2022-09-03T00:40:00.423Z,3.8
2022-09-03T00:41:08.583Z,3.8
2022-09-03T00:42:16.895Z,3.8
2022-09-03T00:43:10.892Z,3.8
2022-09-03T00:44:12.786Z,3.8
2022-09-03T00:45:08.790Z,3.8
2022-09-03T00:46:03.612Z,3.8
2022-09-03T00:47:09.957Z,3.8
2022-09-03T00:48:10.058Z,3.8
2022-09-03T00:49:19.633Z,3.6
2022-09-03T00:50:12.143Z,3.6
2022-09-03T00:51:18.816Z,3.6
2022-09-03T00:52:11.204Z,3.6
2022-09-03T00:53:08.747Z,3.6
2022-09-03T00:54:20.158Z,3.8
2022-09-03T00:55:15.663Z,3.8
2022-09-03T00:56:16.357Z,3.8
2022-09-03T00:57:17.526Z,3.8
2022-09-03T00:58:20.137Z,3.8
2022-09-03T00:59:12.258Z,3.6
2022-09-03T01:00:11.588Z,3.6
2022-09-03T01:01:09.216Z,3.6
2022-09-03T01:02:06.657Z,3.6
2022-09-03T01:03:11.188Z,3.6
2022-09-03T01:04:10.811Z,3.6
2022-09-03T01:05:07.626Z,3.6
2022-09-03T01:06:12.013Z,3.6
2022-09-03T01:07:14.394Z,3.6
2022-09-03T01:08:15.947Z,3.6
2022-09-03T01:09:13.449Z,3.7
2022-09-03T01:10:15.198Z,3.7
2022-09-03T01:11:08.016Z,3.7
2022-09-03T01:12:12.416Z,3.7
2022-09-03T01:13:08.265Z,3.7
2022-09-03T01:14:20.135Z,3.8
2022-09-03T01:15:03.488Z,3.8
2022-09-03T01:16:11.292Z,3.8
2022-09-03T01:17:17.649Z,3.8
2022-09-03T01:18:10.175Z,3.8
2022-09-03T01:19:20.131Z,3.6
2022-09-03T01:20:19.227Z,3.6
2022-09-03T01:21:13.443Z,3.6
2022-09-03T01:22:13.503Z,3.6
2022-09-03T01:23:18.289Z,3.6
2022-09-03T01:24:20.134Z,3.8
2022-09-03T01:25:10.423Z,3.8
2022-09-03T01:26:09.703Z,3.8
2022-09-03T01:27:12.331Z,3.8
2022-09-03T01:28:17.620Z,3.8
2022-09-03T01:29:08.996Z,3.8
2022-09-03T01:30:06.357Z,3.8
2022-09-03T01:31:11.262Z,3.8
2022-09-03T01:32:06.209Z,3.8
2022-09-03T01:33:11.726Z,3.8
2022-09-03T01:34:11.230Z,4.1
2022-09-03T01:35:10.248Z,4.1
2022-09-03T01:36:11.840Z,4.1
2022-09-03T01:37:14.673Z,4.1
2022-09-03T01:38:16.184Z,4.1
2022-09-03T01:39:04.635Z,4.1
2022-09-03T01:40:20.162Z,4.1
2022-09-03T01:41:04.600Z,4.1
2022-09-03T01:42:13.456Z,4.1
2022-09-03T01:43:11.204Z,4.1
2022-09-03T01:44:13.326Z,3.9
2022-09-03T01:45:10.162Z,3.9
2022-09-03T01:46:08.533Z,3.9
2022-09-03T01:47:14.436Z,3.9
2022-09-03T01:48:15.821Z,3.9
2022-09-03T01:49:05.235Z,4.1
2022-09-03T01:50:20.131Z,4.1
2022-09-03T01:51:10.192Z,4.1
2022-09-03T01:52:10.080Z,4.1
2022-09-03T01:53:20.137Z,4.1
2022-09-03T01:54:21.280Z,4.2
2022-09-03T01:55:20.135Z,4.2
2022-09-03T01:56:10.190Z,4.2
2022-09-03T01:57:15.122Z,4.2
2022-09-03T01:58:13.580Z,4.2
2022-09-03T01:59:12.589Z,4.2
2022-09-03T02:00:04.614Z,4.2
2022-09-03T02:01:06.392Z,4.2
2022-09-03T02:02:02.965Z,4.2
2022-09-03T02:03:06.606Z,4.2
2022-09-03T02:04:00.812Z,4.5
2022-09-03T02:05:04.800Z,4.5
2022-09-03T02:06:00.603Z,4.5
2022-09-03T02:07:01.515Z,4.5
2022-09-03T02:08:04.119Z,4.5
2022-09-03T02:09:00.241Z,4.5
2022-09-03T02:10:01.679Z,4.5
2022-09-03T02:11:00.772Z,4.5
2022-09-03T02:12:07.419Z,4.5
2022-09-03T02:13:06.029Z,4.5
2022-09-03T02:14:00.337Z,4.2
2022-09-03T02:15:03.964Z,4.2
2022-09-03T02:16:10.469Z,4.2
2022-09-03T02:17:04.048Z,4.2
2022-09-03T02:18:04.525Z,4.2
2022-09-03T02:19:06.119Z,4.2
2022-09-03T02:20:05.708Z,4.2
2022-09-03T02:21:00.327Z,4.2
2022-09-03T02:22:00.320Z,4.2
2022-09-03T02:23:01.579Z,4.2
2022-09-03T02:24:02.048Z,4.2
2022-09-03T02:25:00.700Z,4.2
2022-09-03T02:26:02.170Z,4.2
2022-09-03T02:27:00.331Z,4.2
2022-09-03T02:28:00.881Z,4.2
2022-09-03T02:29:01.925Z,4.5
2022-09-03T02:30:00.266Z,4.5
2022-09-03T02:31:00.531Z,4.5
2022-09-03T02:32:00.453Z,4.5
2022-09-03T02:33:00.775Z,4.5
2022-09-03T02:34:00.768Z,4.4
2022-09-03T02:35:00.372Z,4.4
2022-09-03T02:36:02.967Z,4.4
2022-09-03T02:37:12.314Z,4.4
2022-09-03T02:38:11.350Z,4.4
2022-09-03T02:39:00.961Z,4.0
2022-09-03T02:40:00.673Z,4.0
2022-09-03T02:41:00.643Z,4.0
2022-09-03T02:42:00.513Z,4.0
2022-09-03T02:43:02.232Z,4.0
2022-09-03T02:44:14.799Z,4.6
2022-09-03T02:45:11.850Z,4.6
2022-09-03T02:46:03.814Z,4.6
2022-09-03T02:47:03.784Z,4.6
2022-09-03T02:48:00.310Z,4.6
2022-09-03T02:49:00.385Z,4.1
2022-09-03T02:50:00.225Z,4.1
2022-09-03T02:51:00.634Z,4.1
2022-09-03T02:52:05.384Z,4.1
2022-09-03T02:53:00.226Z,4.1
2022-09-03T02:54:00.398Z,4.3
2022-09-03T02:55:00.288Z,4.3
2022-09-03T02:56:01.390Z,4.3
2022-09-03T02:57:00.779Z,4.3
2022-09-03T02:58:00.332Z,4.3
2022-09-03T02:59:01.078Z,4.2
2022-09-03T03:00:00.341Z,4.2
2022-09-03T03:01:00.356Z,4.2
2022-09-03T03:02:01.040Z,4.2
2022-09-03T03:03:00.814Z,4.2
2022-09-03T03:04:00.281Z,4.5
2022-09-03T03:05:00.282Z,4.5
2022-09-03T03:06:03.742Z,4.5
2022-09-03T03:07:00.282Z,4.5
2022-09-03T03:08:00.565Z,4.5
2022-09-03T03:09:00.333Z,4.3
2022-09-03T03:10:00.335Z,4.3
2022-09-03T03:11:00.936Z,4.3
2022-09-03T03:12:00.305Z,4.3
2022-09-03T03:13:00.418Z,4.3
2022-09-03T03:14:00.218Z,4.2
2022-09-03T03:15:00.278Z,4.2
2022-09-03T03:16:02.915Z,4.2
2022-09-03T03:17:00.408Z,4.2
2022-09-03T03:18:00.291Z,4.2
2022-09-03T03:19:00.251Z,4.6
2022-09-03T03:20:00.250Z,4.6
2022-09-03T03:21:11.420Z,4.6
2022-09-03T03:22:00.275Z,4.6
2022-09-03T03:23:01.543Z,4.6
2022-09-03T03:24:00.962Z,4.4
2022-09-03T03:25:00.239Z,4.4
2022-09-03T03:26:01.895Z,4.4
2022-09-03T03:27:00.241Z,4.4
2022-09-03T03:28:00.445Z,4.4
2022-09-03T03:29:01.458Z,4.6
2022-09-03T03:30:00.272Z,4.6
2022-09-03T03:31:09.983Z,4.6
2022-09-03T03:32:00.465Z,4.6
2022-09-03T03:33:00.281Z,4.6
2022-09-03T03:34:02.266Z,4.5
2022-09-03T03:35:00.252Z,4.5
2022-09-03T03:36:11.550Z,4.5
2022-09-03T03:37:00.305Z,4.5
2022-09-03T03:38:00.359Z,4.5
2022-09-03T03:39:01.159Z,4.3
2022-09-03T03:40:00.443Z,4.3
2022-09-03T03:41:06.927Z,4.3
2022-09-03T03:42:00.264Z,4.3
2022-09-03T03:43:00.246Z,4.3
2022-09-03T03:44:03.195Z,4.6
2022-09-03T03:45:00.634Z,4.6
2022-09-03T03:46:00.386Z,4.6
2022-09-03T03:47:01.273Z,4.6
2022-09-03T03:48:00.245Z,4.6
2022-09-03T03:49:00.396Z,4.7
2022-09-03T03:50:00.628Z,4.7
2022-09-03T03:51:00.897Z,4.7
2022-09-03T03:52:00.259Z,4.7
2022-09-03T03:53:00.279Z,4.7
2022-09-03T03:54:04.460Z,4.2
2022-09-03T03:55:00.221Z,4.2
2022-09-03T03:56:02.849Z,4.2
2022-09-03T03:57:00.300Z,4.2
2022-09-03T03:58:00.302Z,4.2
2022-09-03T03:59:00.369Z,4.5
2022-09-03T04:00:00.448Z,4.5
2022-09-03T04:01:12.254Z,4.5
2022-09-03T04:02:00.281Z,4.5
2022-09-03T04:03:00.215Z,4.5
2022-09-03T04:04:00.626Z,4.5
2022-09-03T04:05:00.254Z,4.5
2022-09-03T04:06:00.842Z,4.5
2022-09-03T04:07:00.292Z,4.5
2022-09-03T04:08:01.169Z,4.5
2022-09-03T04:09:00.296Z,4.4
2022-09-03T04:10:00.265Z,4.4
2022-09-03T04:11:01.754Z,4.4
2022-09-03T04:12:00.645Z,4.4
2022-09-03T04:13:00.239Z,4.4
2022-09-03T04:14:01.610Z,4.2
2022-09-03T04:15:00.233Z,4.2
2022-09-03T04:16:05.945Z,4.2
2022-09-03T04:17:01.152Z,4.2
2022-09-03T04:18:00.281Z,4.2
2022-09-03T04:19:00.248Z,4.7
2022-09-03T04:20:00.325Z,4.7
2022-09-03T04:21:03.400Z,4.7
2022-09-03T04:22:00.335Z,4.7
2022-09-03T04:23:00.401Z,4.7
2022-09-03T04:24:00.230Z,4.2
2022-09-03T04:25:00.219Z,4.2
2022-09-03T04:26:00.442Z,4.2
2022-09-03T04:27:00.306Z,4.2
2022-09-03T04:28:00.385Z,4.2
2022-09-03T04:29:04.449Z,5.0
2022-09-03T04:30:00.243Z,5.0
2022-09-03T04:31:01.733Z,5.0
2022-09-03T04:32:00.360Z,5.0
2022-09-03T04:33:00.219Z,5.0
2022-09-03T04:34:00.601Z,4.4
2022-09-03T04:35:00.322Z,4.4
2022-09-03T04:36:03.076Z,4.4
2022-09-03T04:37:00.218Z,4.4
2022-09-03T04:38:00.227Z,4.4
2022-09-03T04:39:00.760Z,4.6
2022-09-03T04:40:00.400Z,4.6
2022-09-03T04:41:00.803Z,4.6
2022-09-03T04:42:00.284Z,4.6
2022-09-03T04:43:00.323Z,4.6
2022-09-03T04:44:00.286Z,4.5
2022-09-03T04:45:00.229Z,4.5
2022-09-03T04:46:03.335Z,4.5
2022-09-03T04:47:00.221Z,4.5
2022-09-03T04:48:01.996Z,4.5
2022-09-03T04:49:00.777Z,4.4
2022-09-03T04:50:00.236Z,4.4
2022-09-03T04:51:03.193Z,4.4
2022-09-03T04:52:00.687Z,4.4
2022-09-03T04:53:07.644Z,4.4
2022-09-03T04:54:01.336Z,4.2
2022-09-03T04:55:00.263Z,4.2
2022-09-03T04:56:01.917Z,4.2
2022-09-03T04:57:00.263Z,4.2
2022-09-03T04:58:00.364Z,4.2
2022-09-03T04:59:04.187Z,4.5
2022-09-03T05:00:00.236Z,4.5
2022-09-03T05:01:06.379Z,4.5
2022-09-03T05:02:00.304Z,4.5
2022-09-03T05:03:00.405Z,4.5
2022-09-03T05:04:01.276Z,4.7
2022-09-03T05:05:00.230Z,4.7
2022-09-03T05:06:00.229Z,4.7
2022-09-03T05:07:00.303Z,4.7
2022-09-03T05:08:00.914Z,4.7
2022-09-03T05:09:00.387Z,4.4
2022-09-03T05:10:00.223Z,4.4
2022-09-03T05:11:00.466Z,4.4
2022-09-03T05:12:00.291Z,4.4
2022-09-03T05:13:02.814Z,4.4
2022-09-03T05:14:00.240Z,4.0
2022-09-03T05:15:00.270Z,4.0
2022-09-03T05:16:01.854Z,4.0
2022-09-03T05:17:00.308Z,4.0
2022-09-03T05:18:01.556Z,4.0
2022-09-03T05:19:00.266Z,3.9
2022-09-03T05:20:00.226Z,3.9
2022-09-03T05:21:02.576Z,3.9
2022-09-03T05:22:00.214Z,3.9
2022-09-03T05:23:01.708Z,3.9
2022-09-03T05:24:01.270Z,4.1
2022-09-03T05:25:00.330Z,4.1
2022-09-03T05:26:02.307Z,4.1
2022-09-03T05:27:00.217Z,4.1
2022-09-03T05:28:00.616Z,4.1
2022-09-03T05:29:02.899Z,4.0
2022-09-03T05:30:00.228Z,4.0
2022-09-03T05:31:02.318Z,4.0
2022-09-03T05:32:00.338Z,4.0
2022-09-03T05:33:00.225Z,4.0
2022-09-03T05:34:03.148Z,4.2
2022-09-03T05:35:00.236Z,4.2
2022-09-03T05:36:02.549Z,4.2
2022-09-03T05:37:00.253Z,4.2
2022-09-03T05:38:00.234Z,4.2
2022-09-03T05:39:00.382Z,4.0
2022-09-03T05:40:00.311Z,4.0
2022-09-03T05:41:01.764Z,4.0
2022-09-03T05:42:00.223Z,4.0
2022-09-03T05:43:00.227Z,4.0
2022-09-03T05:44:00.644Z,4.2
2022-09-03T05:45:00.239Z,4.2
2022-09-03T05:46:03.653Z,4.2
2022-09-03T05:47:00.215Z,4.2
2022-09-03T05:48:00.311Z,4.2
2022-09-03T05:49:02.497Z,3.9
2022-09-03T05:50:00.218Z,3.9
2022-09-03T05:51:02.642Z,3.9
2022-09-03T05:52:00.352Z,3.9
2022-09-03T05:53:00.246Z,3.9
2022-09-03T05:54:00.909Z,3.8
2022-09-03T05:55:00.294Z,3.8
2022-09-03T05:56:03.053Z,3.8
2022-09-03T05:57:00.739Z,3.8
2022-09-03T05:58:00.277Z,3.8
2022-09-03T05:59:04.648Z,4.0
2022-09-03T06:00:00.317Z,4.0
2022-09-03T06:01:12.405Z,4.0
2022-09-03T06:02:00.681Z,4.0
2022-09-03T06:03:00.354Z,4.0
2022-09-03T06:04:03.029Z,3.8
2022-09-03T06:05:00.335Z,3.8
2022-09-03T06:06:00.223Z,3.8
2022-09-03T06:07:00.323Z,3.8
2022-09-03T06:08:00.387Z,3.8
2022-09-03T06:09:03.626Z,3.8
2022-09-03T06:10:00.229Z,3.8
2022-09-03T06:11:00.847Z,3.8
2022-09-03T06:12:03.955Z,3.8
2022-09-03T06:13:00.213Z,3.8
2022-09-03T06:14:02.592Z,3.8
2022-09-03T06:15:00.238Z,3.8
2022-09-03T06:16:03.452Z,3.8
2022-09-03T06:17:00.303Z,3.8
2022-09-03T06:18:00.338Z,3.8
2022-09-03T06:19:00.443Z,3.9
2022-09-03T06:20:00.300Z,3.9
2022-09-03T06:21:02.410Z,3.9
2022-09-03T06:22:00.227Z,3.9
2022-09-03T06:23:00.237Z,3.9
2022-09-03T06:24:00.473Z,3.9
2022-09-03T06:25:00.612Z,3.9
2022-09-03T06:26:06.172Z,3.9
2022-09-03T06:27:00.218Z,3.9
2022-09-03T06:28:00.272Z,3.9
2022-09-03T06:29:00.255Z,3.8
2022-09-03T06:30:00.240Z,3.8
2022-09-03T06:31:01.860Z,3.8
2022-09-03T06:32:00.276Z,3.8
2022-09-03T06:33:00.214Z,3.8
2022-09-03T06:34:04.059Z,4.3
2022-09-03T06:35:00.240Z,4.3
2022-09-03T06:36:04.577Z,4.3
2022-09-03T06:37:00.282Z,4.3
2022-09-03T06:38:00.288Z,4.3
2022-09-03T06:39:00.664Z,4.0
2022-09-03T06:40:00.428Z,4.0
2022-09-03T06:41:01.767Z,4.0
2022-09-03T06:42:00.256Z,4.0
2022-09-03T06:43:00.227Z,4.0
2022-09-03T06:44:03.730Z,4.1
2022-09-03T06:45:00.254Z,4.1
2022-09-03T06:46:03.362Z,4.1
2022-09-03T06:47:00.216Z,4.1
2022-09-03T06:48:00.261Z,4.1
2022-09-03T06:49:00.855Z,4.0
2022-09-03T06:50:00.385Z,4.0
2022-09-03T06:51:03.797Z,4.0
2022-09-03T06:52:00.347Z,4.0
2022-09-03T06:53:00.214Z,4.0
2022-09-03T06:54:05.821Z,3.9
2022-09-03T06:55:00.290Z,3.9
2022-09-03T06:56:03.646Z,3.9
2022-09-03T06:57:00.223Z,3.9
2022-09-03T06:58:00.306Z,3.9
2022-09-03T06:59:04.767Z,3.9
2022-09-03T07:00:00.365Z,3.9
2022-09-03T07:01:01.084Z,3.9
2022-09-03T07:02:00.359Z,3.9
2022-09-03T07:03:00.219Z,3.9
2022-09-03T07:04:03.451Z,4.2
2022-09-03T07:05:00.278Z,4.2
2022-09-03T07:06:01.572Z,4.2
2022-09-03T07:07:00.504Z,4.2
2022-09-03T07:08:00.274Z,4.2
2022-09-03T07:09:00.238Z,4.0
2022-09-03T07:10:00.303Z,4.0
2022-09-03T07:11:02.421Z,4.0
2022-09-03T07:12:00.351Z,4.0
2022-09-03T07:13:00.224Z,4.0
2022-09-03T07:14:01.988Z,4.0
2022-09-03T07:15:00.279Z,4.0
2022-09-03T07:16:02.503Z,4.0
2022-09-03T07:17:00.222Z,4.0
2022-09-03T07:18:00.279Z,4.0
2022-09-03T07:19:00.791Z,4.1
2022-09-03T07:20:00.267Z,4.1
2022-09-03T07:21:02.188Z,4.1
2022-09-03T07:22:00.254Z,4.1
2022-09-03T07:23:00.215Z,4.1
2022-09-03T07:24:00.296Z,4.1
2022-09-03T07:25:00.226Z,4.1
2022-09-03T07:26:04.705Z,4.1
2022-09-03T07:27:00.283Z,4.1
2022-09-03T07:28:00.365Z,4.1
2022-09-03T07:29:00.366Z,4.1
2022-09-03T07:30:00.314Z,4.1
2022-09-03T07:31:03.963Z,4.1
2022-09-03T07:32:00.537Z,4.1
2022-09-03T07:33:00.250Z,4.1
2022-09-03T07:34:03.099Z,4.0
2022-09-03T07:35:00.253Z,4.0
2022-09-03T07:36:06.389Z,4.0
2022-09-03T07:37:00.247Z,4.0
2022-09-03T07:38:00.268Z,4.0
2022-09-03T07:39:00.264Z,4.3
2022-09-03T07:40:00.460Z,4.3
2022-09-03T07:41:03.742Z,4.3
2022-09-03T07:42:00.214Z,4.3
2022-09-03T07:43:00.250Z,4.3
2022-09-03T07:44:00.445Z,4.2
2022-09-03T07:45:00.313Z,4.2
2022-09-03T07:46:00.611Z,4.2
2022-09-03T07:47:00.315Z,4.2
2022-09-03T07:48:00.304Z,4.2
2022-09-03T07:49:00.572Z,4.3
2022-09-03T07:50:00.529Z,4.3
2022-09-03T07:51:00.813Z,4.3
2022-09-03T07:52:00.328Z,4.3
2022-09-03T07:53:00.227Z,4.3
2022-09-03T07:54:02.299Z,4.4
2022-09-03T07:55:00.227Z,4.4
2022-09-03T07:56:01.280Z,4.4
2022-09-03T07:57:00.252Z,4.4
2022-09-03T07:58:00.307Z,4.4
2022-09-03T07:59:00.989Z,4.6
2022-09-03T08:00:00.362Z,4.6
2022-09-03T08:01:11.213Z,4.6
2022-09-03T08:02:00.230Z,4.6
2022-09-03T08:03:00.245Z,4.6
2022-09-03T08:04:01.657Z,4.8
2022-09-03T08:05:00.263Z,4.8
2022-09-03T08:06:02.747Z,4.8
2022-09-03T08:07:00.594Z,4.8
2022-09-03T08:08:00.237Z,4.8
2022-09-03T08:09:05.294Z,5.3
2022-09-03T08:10:00.245Z,5.3
2022-09-03T08:11:07.242Z,5.3
2022-09-03T08:12:00.257Z,5.3
2022-09-03T08:13:00.320Z,5.3
2022-09-03T08:14:03.167Z,4.8
2022-09-03T08:15:00.255Z,4.8
2022-09-03T08:16:00.464Z,4.8
2022-09-03T08:17:00.250Z,4.8
2022-09-03T08:18:03.718Z,4.8
2022-09-03T08:19:00.241Z,4.5
2022-09-03T08:20:00.316Z,4.5
2022-09-03T08:21:00.439Z,4.5
2022-09-03T08:22:00.532Z,4.5
2022-09-03T08:23:00.893Z,4.5
2022-09-03T08:24:00.349Z,5.0
2022-09-03T08:25:00.249Z,5.0
2022-09-03T08:26:00.493Z,5.0
2022-09-03T08:27:00.233Z,5.0
2022-09-03T08:28:00.298Z,5.0
2022-09-03T08:29:00.516Z,4.8
2022-09-03T08:30:00.381Z,4.8
2022-09-03T08:31:05.113Z,4.8
2022-09-03T08:32:00.356Z,4.8
2022-09-03T08:33:01.315Z,4.8
2022-09-03T08:34:02.214Z,5.0
2022-09-03T08:35:00.261Z,5.0
2022-09-03T08:36:00.266Z,5.0
2022-09-03T08:37:00.240Z,5.0
2022-09-03T08:38:00.263Z,5.0
2022-09-03T08:39:02.631Z,4.9
2022-09-03T08:40:00.518Z,4.9
2022-09-03T08:41:02.895Z,4.9
2022-09-03T08:42:01.250Z,4.9
2022-09-03T08:43:10.189Z,4.9
2022-09-03T08:44:02.983Z,4.8
2022-09-03T08:45:05.024Z,4.8
2022-09-03T08:46:01.358Z,4.8
2022-09-03T08:47:13.298Z,4.8
2022-09-03T08:48:07.810Z,4.8
2022-09-03T08:49:01.145Z,4.6
2022-09-03T08:50:08.723Z,4.6
2022-09-03T08:51:02.655Z,4.6
2022-09-03T08:52:03.969Z,4.6
2022-09-03T08:53:13.130Z,4.6
2022-09-03T08:54:01.386Z,4.9
2022-09-03T08:55:13.066Z,4.9
2022-09-03T08:56:08.072Z,4.9
2022-09-03T08:57:02.158Z,4.9
2022-09-03T08:58:08.676Z,4.9
2022-09-03T08:59:00.766Z,4.6
2022-09-03T09:00:00.299Z,4.6
2022-09-03T09:01:16.299Z,4.6
2022-09-03T09:02:13.582Z,4.6
2022-09-03T09:03:16.801Z,4.6
2022-09-03T09:04:10.188Z,4.7
2022-09-03T09:05:14.523Z,4.7
2022-09-03T09:06:20.157Z,4.7
2022-09-03T09:07:13.403Z,4.7
2022-09-03T09:08:19.646Z,4.7
2022-09-03T09:09:02.287Z,5.1
2022-09-03T09:10:15.291Z,5.1
2022-09-03T09:11:11.249Z,5.1
2022-09-03T09:12:10.217Z,5.1
2022-09-03T09:13:11.222Z,5.1
2022-09-03T09:14:07.968Z,5.0
2022-09-03T09:15:07.741Z,5.0
2022-09-03T09:16:11.308Z,5.0
2022-09-03T09:17:14.219Z,5.0
2022-09-03T09:18:10.745Z,5.0
2022-09-03T09:19:15.513Z,4.6
2022-09-03T09:20:14.708Z,4.6
2022-09-03T09:21:08.296Z,4.6
2022-09-03T09:22:04.281Z,4.6
2022-09-03T09:23:02.708Z,4.6
2022-09-03T09:24:06.003Z,4.4
2022-09-03T09:25:04.942Z,4.4
2022-09-03T09:26:06.008Z,4.4
2022-09-03T09:27:04.450Z,4.4
2022-09-03T09:28:03.694Z,4.4
2022-09-03T09:29:06.324Z,4.4
2022-09-03T09:30:04.405Z,4.4
2022-09-03T09:31:02.897Z,4.4
2022-09-03T09:32:00.684Z,4.4
2022-09-03T09:33:00.244Z,4.4
2022-09-03T09:34:04.827Z,4.4
2022-09-03T09:35:00.226Z,4.4
2022-09-03T09:36:06.630Z,4.4
2022-09-03T09:37:04.716Z,4.4
2022-09-03T09:38:00.476Z,4.4
2022-09-03T09:39:09.402Z,4.8
2022-09-03T09:40:00.521Z,4.8
2022-09-03T09:41:11.653Z,4.8
2022-09-03T09:42:04.087Z,4.8
2022-09-03T09:43:12.256Z,4.8
2022-09-03T09:44:01.762Z,4.4
2022-09-03T09:45:09.099Z,4.4
2022-09-03T09:46:07.863Z,4.4
2022-09-03T09:47:05.594Z,4.4
2022-09-03T09:48:01.921Z,4.4
2022-09-03T09:49:00.281Z,4.6
2022-09-03T09:50:01.694Z,4.6
2022-09-03T09:51:11.867Z,4.6
2022-09-03T09:52:01.748Z,4.6
2022-09-03T09:53:02.651Z,4.6
2022-09-03T09:54:01.533Z,4.4
2022-09-03T09:55:14.393Z,4.4
2022-09-03T09:56:00.409Z,4.4
2022-09-03T09:57:04.753Z,4.4
2022-09-03T09:58:05.801Z,4.4
2022-09-03T09:59:04.932Z,4.3
2022-09-03T10:00:06.755Z,4.3
2022-09-03T10:01:11.160Z,4.3
2022-09-03T10:02:09.335Z,4.3
2022-09-03T10:03:00.403Z,4.3
2022-09-03T10:04:08.550Z,4.7
2022-09-03T10:05:14.675Z,4.7
2022-09-03T10:06:05.432Z,4.7
2022-09-03T10:07:20.164Z,4.7
2022-09-03T10:08:03.063Z,4.7
2022-09-03T10:09:09.450Z,4.2
2022-09-03T10:10:05.566Z,4.2
2022-09-03T10:11:00.333Z,4.2
2022-09-03T10:12:08.336Z,4.2
2022-09-03T10:13:08.776Z,4.2
2022-09-03T10:14:01.243Z,4.7
2022-09-03T10:15:14.490Z,4.7
2022-09-03T10:16:07.220Z,4.7
2022-09-03T10:17:08.180Z,4.7
2022-09-03T10:18:14.829Z,4.7
2022-09-03T10:19:08.503Z,4.5
2022-09-03T10:20:09.350Z,4.5
2022-09-03T10:21:05.467Z,4.5
2022-09-03T10:22:08.939Z,4.5
2022-09-03T10:23:09.462Z,4.5
2022-09-03T10:24:13.645Z,4.4
2022-09-03T10:25:02.225Z,4.4
2022-09-03T10:26:05.173Z,4.4
2022-09-03T10:27:00.283Z,4.4
2022-09-03T10:28:00.625Z,4.4
2022-09-03T10:29:03.246Z,4.3
2022-09-03T10:30:00.373Z,4.3
2022-09-03T10:31:10.240Z,4.3
2022-09-03T10:32:11.216Z,4.3
2022-09-03T10:33:07.519Z,4.3
2022-09-03T10:34:13.463Z,3.9
2022-09-03T10:35:17.824Z,3.9
2022-09-03T10:36:10.691Z,3.9
2022-09-03T10:37:04.842Z,3.9
2022-09-03T10:38:02.279Z,3.9
2022-09-03T10:39:09.302Z,4.3
2022-09-03T10:40:11.271Z,4.3
2022-09-03T10:41:10.192Z,4.3
2022-09-03T10:42:10.175Z,4.3
2022-09-03T10:43:20.133Z,4.3
2022-09-03T10:44:20.141Z,4.3
2022-09-03T10:45:16.437Z,4.3
2022-09-03T10:46:10.285Z,4.3
2022-09-03T10:47:08.234Z,4.3
2022-09-03T10:48:13.430Z,4.3
2022-09-03T10:49:20.153Z,4.8
2022-09-03T10:50:01.243Z,4.8
2022-09-03T10:51:11.229Z,4.8
2022-09-03T10:52:16.152Z,4.8
2022-09-03T10:53:12.782Z,4.8
2022-09-03T10:54:11.188Z,4.7
2022-09-03T10:55:10.172Z,4.7
2022-09-03T10:56:03.097Z,4.7
2022-09-03T10:57:18.646Z,4.7
2022-09-03T10:58:20.157Z,4.7
2022-09-03T10:59:17.553Z,4.4
2022-09-03T11:00:03.528Z,4.4
2022-09-03T11:01:17.062Z,4.4
2022-09-03T11:02:20.246Z,4.4
2022-09-03T11:03:21.161Z,4.4
2022-09-03T11:04:17.606Z,4.7
2022-09-03T11:05:00.277Z,4.7
2022-09-03T11:06:08.437Z,4.7
2022-09-03T11:07:03.815Z,4.7
2022-09-03T11:08:10.191Z,4.7
2022-09-03T11:09:10.817Z,4.5
2022-09-03T11:10:10.947Z,4.5
2022-09-03T11:11:10.822Z,4.5
2022-09-03T11:12:08.996Z,4.5
2022-09-03T11:13:11.485Z,4.5
2022-09-03T11:14:06.640Z,4.3
2022-09-03T11:15:04.814Z,4.3
2022-09-03T11:16:09.176Z,4.3
2022-09-03T11:17:08.640Z,4.3
2022-09-03T11:18:15.904Z,4.3
2022-09-03T11:19:05.104Z,4.3
2022-09-03T11:20:14.234Z,4.3
2022-09-03T11:21:11.836Z,4.3
2022-09-03T11:22:01.269Z,4.3
2022-09-03T11:23:03.488Z,4.3
2022-09-03T11:24:14.336Z,4.5
2022-09-03T11:25:02.182Z,4.5
2022-09-03T11:26:04.560Z,4.5
2022-09-03T11:27:14.754Z,4.5
2022-09-03T11:28:11.684Z,4.5
2022-09-03T11:29:05.774Z,4.5
2022-09-03T11:30:05.941Z,4.5
2022-09-03T11:31:15.835Z,4.5
2022-09-03T11:32:06.909Z,4.5
2022-09-03T11:33:07.750Z,4.5
2022-09-03T11:34:07.385Z,4.4
2022-09-03T11:35:00.259Z,4.4
2022-09-03T11:36:01.075Z,4.4
2022-09-03T11:37:06.199Z,4.4
2022-09-03T11:38:03.132Z,4.4
2022-09-03T11:39:10.436Z,4.2
2022-09-03T11:40:03.698Z,4.2
2022-09-03T11:41:10.197Z,4.2
2022-09-03T11:42:03.292Z,4.2
2022-09-03T11:43:10.159Z,4.2
2022-09-03T11:44:18.094Z,4.4
2022-09-03T11:45:20.132Z,4.4
2022-09-03T11:46:01.155Z,4.4
2022-09-03T11:47:00.240Z,4.4
2022-09-03T11:48:00.403Z,4.4
2022-09-03T11:49:11.744Z,4.6
2022-09-03T11:50:07.462Z,4.6
2022-09-03T11:51:00.298Z,4.6
2022-09-03T11:52:02.948Z,4.6
2022-09-03T11:53:08.984Z,4.6
2022-09-03T11:54:02.740Z,4.3
2022-09-03T11:55:00.237Z,4.3
2022-09-03T11:56:15.988Z,4.3
2022-09-03T11:57:06.549Z,4.3
2022-09-03T11:58:20.137Z,4.3
2022-09-03T11:59:12.901Z,4.5
2022-09-03T12:00:07.832Z,4.5
2022-09-03T12:01:02.896Z,4.5
2022-09-03T12:02:10.260Z,4.5
2022-09-03T12:03:02.233Z,4.5
2022-09-03T12:04:03.623Z,4.2
2022-09-03T12:05:11.222Z,4.2
2022-09-03T12:06:17.550Z,4.2
2022-09-03T12:07:12.201Z,4.2
2022-09-03T12:08:09.045Z,4.2
2022-09-03T12:09:17.506Z,4.4
2022-09-03T12:10:11.771Z,4.4
2022-09-03T12:11:10.187Z,4.4
2022-09-03T12:12:19.163Z,4.4
2022-09-03T12:13:12.796Z,4.4
2022-09-03T12:14:13.761Z,4.5
2022-09-03T12:15:20.137Z,4.5
2022-09-03T12:16:11.201Z,4.5
2022-09-03T12:17:13.546Z,4.5
2022-09-03T12:18:03.342Z,4.5
2022-09-03T12:19:06.496Z,4.4
2022-09-03T12:20:00.375Z,4.4
2022-09-03T12:21:01.266Z,4.4
2022-09-03T12:22:00.382Z,4.4
2022-09-03T12:23:00.286Z,4.4
2022-09-03T12:24:01.004Z,4.8
2022-09-03T12:25:12.779Z,4.8
2022-09-03T12:26:04.889Z,4.8
2022-09-03T12:27:01.260Z,4.8
2022-09-03T12:28:01.182Z,4.8
2022-09-03T12:29:00.434Z,5.1
2022-09-03T12:30:03.445Z,5.1
2022-09-03T12:31:18.556Z,5.1
2022-09-03T12:32:12.387Z,5.1
2022-09-03T12:33:07.783Z,5.1
2022-09-03T12:34:08.543Z,4.5
2022-09-03T12:35:10.077Z,4.5
2022-09-03T12:36:01.071Z,4.5
2022-09-03T12:37:00.352Z,4.5
2022-09-03T12:38:03.971Z,4.5
2022-09-03T12:39:19.009Z,4.4
2022-09-03T12:40:08.247Z,4.4
2022-09-03T12:41:27.000Z,4.4
2022-09-03T12:42:02.585Z,4.4
2022-09-03T12:43:38.659Z,4.4
2022-09-03T12:44:00.275Z,4.6
2022-09-03T12:45:08.717Z,4.6
2022-09-03T12:46:11.998Z,4.6
2022-09-03T12:47:36.109Z,4.6
2022-09-03T12:48:00.266Z,4.6
2022-09-03T12:49:31.065Z,4.2
2022-09-03T12:50:07.519Z,4.2
2022-09-03T12:51:48.001Z,4.2
2022-09-03T12:52:06.944Z,4.2
2022-09-03T12:53:02.359Z,4.2
2022-09-03T12:54:01.470Z,4.6
2022-09-03T12:55:04.763Z,4.6
2022-09-03T12:56:01.663Z,4.6
2022-09-03T12:57:00.790Z,4.6
2022-09-03T12:58:14.017Z,4.6
2022-09-03T12:59:06.259Z,4.6
2022-09-03T13:00:05.417Z,4.6
2022-09-03T13:01:08.986Z,4.6
2022-09-03T13:02:10.257Z,4.6
2022-09-03T13:03:12.516Z,4.6
2022-09-03T13:04:07.637Z,4.3
2022-09-03T13:05:00.808Z,4.3
2022-09-03T13:06:07.028Z,4.3
2022-09-03T13:07:06.952Z,4.3
2022-09-03T13:08:04.117Z,4.3
2022-09-03T13:09:03.326Z,4.3
2022-09-03T13:10:04.387Z,4.3
2022-09-03T13:11:02.868Z,4.3
2022-09-03T13:12:00.356Z,4.3
2022-09-03T13:13:02.172Z,4.3
2022-09-03T13:14:05.001Z,4.2
2022-09-03T13:15:11.252Z,4.2
2022-09-03T13:16:10.179Z,4.2
2022-09-03T13:17:09.343Z,4.2
2022-09-03T13:18:10.185Z,4.2
2022-09-03T13:19:20.132Z,4.3
2022-09-03T13:20:13.456Z,4.3
2022-09-03T13:21:07.551Z,4.3
2022-09-03T13:22:08.720Z,4.3
2022-09-03T13:23:00.216Z,4.3
2022-09-03T13:24:18.540Z,4.4
2022-09-03T13:25:12.892Z,4.4
2022-09-03T13:26:07.377Z,4.4
2022-09-03T13:27:20.132Z,4.4
2022-09-03T13:28:20.135Z,4.4
2022-09-03T13:29:10.171Z,4.4
2022-09-03T13:30:08.462Z,4.4
2022-09-03T13:31:08.151Z,4.4
2022-09-03T13:32:20.127Z,4.4
2022-09-03T13:33:08.250Z,4.4
2022-09-03T13:34:15.470Z,4.5
2022-09-03T13:35:09.720Z,4.5
2022-09-03T13:36:07.480Z,4.5
2022-09-03T13:37:10.200Z,4.5
2022-09-03T13:38:20.131Z,4.5
2022-09-03T13:39:06.547Z,4.4
2022-09-03T13:40:13.539Z,4.4
2022-09-03T13:41:06.547Z,4.4
2022-09-03T13:42:06.863Z,4.4
2022-09-03T13:43:18.722Z,4.4
2022-09-03T13:44:05.812Z,4.4
2022-09-03T13:45:10.173Z,4.4
2022-09-03T13:46:06.217Z,4.4